Aviation Digital Data Service (ADDS)

Output produced by METARs form (0108 UTC 01 November 2020)
found at http://www.aviationweather.gov/metar/data/
 
METAR text: KAMW 010053Z AUTO 32016G26KT 10SM CLR 13/02 A3001 RMK AO2 PK WND 30030/0041 SLP162 T01330017
Conditions at: KAMW (AMES , IA, US) observed 0053 UTC 01 November 2020
Temperature: 13.3°C (56°F)
Dewpoint: 1.7°C (35°F) [RH = 45%]
Pressure (altimeter): 30.01 inches Hg (1016.3 mb)
[Sea-level pressure: 1016.2 mb]
Winds: from the NW (320 degrees) at 18 MPH (16 knots; 8.2 m/s)
gusting to 30 MPH (26 knots; 13.4 m/s)
Visibility: 10 or more miles (16+ km)
Ceiling: at least 12,000 feet AGL
Clouds: sky clear below 12,000 feet AGL
Weather: automated observation with no human augmentation;
there may or may not be significant weather present at this time